Create Custom Reports and Graphics: Custom Report

Stanford Met Tower

Current Conditions

9/24/22 12:00 PM (-07:00)
Updated Every 15 Minutes
Temp 81.5 °F   1.1
RH 48 %   8
Dew Pt 59.8 °F   5.8
Wind Dir N | 359 °
Wind Spd 3.2 mph   1.3
Wind Gust 6.5 mph   1.6
NowCast AQI Value 17 AQI   4
NowCast AQI Status Good
Daily Min Temp 52.4 °F   2.2
Daily Max Temp 82.6 °F   1.4
Daily Max Wind 8.3 mph   0.8
Yest MinT 50.1 °F
Yest MaxT 87.3 °F
Yest MaxGst 11.5 mph
Seasonal Rainfall 0.39 In

Last 48 Hours

Stanford Met Tower

Hourly Data | America/Los_Angeles
as of 9/24/22 12:29 PM PDT
Date & Time Temp (°F) RH (%) Dew Pt (°F) Wind Dir (°) Wind Spd (mph) Wind Gust (mph) Solar Rad (W/m2) Pressure (mb) NowCast AQI Value (AQI) NowCast AQI Status Latest Rain (In) Daily Rain (In) Daily Min Temp (°F) Daily Max Temp (°F)
9/24/22 - 1200 80.4 49 59.5 N | 10 2.8 6.5 763 1,017.6 17 Good 0.00 0.00 52.4 82.6
9/24/22 - 1100 76.5 53 58.2 NE | 34 2.2 5.1 638 1,018.3 16 Good 0.00 0.00 52.4 79.5
9/24/22 - 1000 70.7 68 59.5 WNW | 301 1.2 3.5 465 1,019.1 17 Good 0.00 0.00 52.4 75.2
9/24/22 - 0900 61.6 78 54.8 WNW | 297 2.4 3.9 222 1,019.1 15 Good 0.00 0.00 52.4 67.3
9/24/22 - 0800 53.6 88 50.1 SSW | 207 2.6 5.6 34 1,018.6 12 Good 0.00 0.00 52.4 58.5
9/24/22 - 0700 53.1 88 49.7 SW | 216 3.4 6.5 1 1,017.9 11 Good 0.00 0.00 52.4 58.5
9/24/22 - 0600 54.6 85 50.1 SW | 216 3.0 5.3 0 1,017.4 10 Good 0.00 0.00 52.7 58.5
9/24/22 - 0500 55.4 84 50.7 SSW | 206 4.9 7.9 0 1,017.2 11 Good 0.00 0.00 54.6 58.5
9/24/22 - 0400 56.7 83 51.6 SSW | 213 4.9 8.3 0 1,017.2 13 Good 0.00 0.00 55.4 58.5
9/24/22 - 0300 57.4 82 51.8 SSW | 192 5.9 7.9 0 1,017.3 14 Good 0.00 0.00 56.3 58.5
9/24/22 - 0200 57.0 84 52.3 SSW | 210 1.9 6.0 0 1,017.1 16 Good 0.00 0.00 56.3 58.5
9/24/22 - 0100 59.6 79 53.0 SSW | 201 4.4 7.0 0 1,016.9 16 Good 0.00 0.00 50.1 87.3
9/24/22 - 0000 60.6 79 54.0 SSW | 209 4.4 6.9 0 1,017.0 17 Good 0.00 0.00 50.1 87.3
9/23/22 - 2300 62.4 77 55.2 SSW | 197 3.7 6.6 0 1,016.8 17 Good 0.00 0.00 50.1 87.3
9/23/22 - 2200 64.9 71 55.4 S | 170 2.8 6.0 0 1,016.3 15 Good 0.00 0.00 50.1 87.3
9/23/22 - 2100 68.7 61 55.0 S | 176 1.7 3.3 0 1,015.5 13 Good 0.00 0.00 50.1 87.3
9/23/22 - 2000 77.0 44 53.3 NW | 311 2.2 8.5 1 1,014.2 12 Good 0.00 0.00 50.1 87.3
9/23/22 - 1900 84.0 34 52.9 NNW | 328 4.5 9.8 78 1,013.5 12 Good 0.00 0.00 50.1 87.3
9/23/22 - 1800 86.1 32 53.1 NNW | 339 5.5 10.8 274 1,013.0 12 Good 0.00 0.00 50.1 87.3
9/23/22 - 1700 86.3 32 53.3 NNW | 345 5.3 10.5 475 1,013.1 12 Good 0.00 0.00 50.1 87.3
9/23/22 - 1600 85.8 33 53.5 NNE | 19 5.0 11.3 650 1,013.3 11 Good 0.00 0.00 50.1 86.8
9/23/22 - 1500 84.2 36 54.0 N | 7 5.5 11.3 775 1,013.2 11 Good 0.00 0.00 50.1 86.2
9/23/22 - 1400 83.2 38 55.1 N | 4 5.0 11.5 838 1,013.9 12 Good 0.00 0.00 50.1 84.3
9/23/22 - 1300 81.8 40 55.1 N | 350 2.7 8.1 836 1,014.8 12 Good 0.00 0.00 50.1 83.4
9/23/22 - 1200 79.0 43 54.5 ENE | 66 2.2 6.3 767 1,015.9 13 Good 0.00 0.00 50.1 81.2
9/23/22 - 1100 73.6 51 54.1 NNW | 341 0.5 2.7 638 1,017.2 14 Good 0.00 0.00 50.1 78.2
9/23/22 - 1000 67.0 67 55.6 NNW | 343 0.3 2.4 464 1,018.3 16 Good 0.00 0.00 50.1 70.4
9/23/22 - 0900 59.3 79 52.6 W | 278 1.0 4.0 235 1,018.5 13 Good 0.00 0.00 50.1 64.2
9/23/22 - 0800 51.3 91 48.7 SSW | 206 3.2 6.1 35 1,018.3 11 Good 0.00 0.00 50.1 56.6
9/23/22 - 0700 51.1 89 48.1 SSW | 205 4.6 7.2 1 1,018.0 10 Good 0.00 0.00 50.5 56.6
9/23/22 - 0600 51.6 88 48.2 SW | 223 4.4 7.2 0 1,017.9 11 Good 0.00 0.00 50.5 56.6
9/23/22 - 0500 52.1 88 48.6 SW | 217 3.8 7.4 0 1,017.9 11 Good 0.00 0.00 51.6 56.6
9/23/22 - 0400 52.4 89 49.4 SW | 219 4.3 7.6 0 1,017.9 11 Good 0.00 0.00 52.0 56.6
9/23/22 - 0300 53.2 87 49.6 WSW | 243 3.4 5.3 0 1,018.1 11 Good 0.00 0.00 52.4 56.6
9/23/22 - 0200 54.9 85 50.4 SSW | 197 3.3 6.3 0 1,017.9 12 Good 0.00 0.00 53.4 56.6
9/23/22 - 0100 58.1 78 51.4 S | 186 3.6 8.2 0 1,017.9 13 Good 0.00 0.00 49.7 80.3
9/23/22 - 0000 58.4 81 52.5 SW | 221 3.6 6.9 0 1,018.1 14 Good 0.00 0.00 49.7 80.3
9/22/22 - 2300 59.9 79 53.4 SSW | 201 4.4 8.2 0 1,018.1 15 Good 0.00 0.00 49.7 80.3
9/22/22 - 2200 60.9 78 54.0 SSE | 162 2.0 6.9 0 1,018.1 14 Good 0.00 0.00 49.7 80.3
9/22/22 - 2100 64.7 66 53.3 NNE | 25 2.0 3.8 0 1,017.5 12 Good 0.00 0.00 49.7 80.3
9/22/22 - 2000 70.4 54 53.0 NNW | 329 2.3 6.9 1 1,016.7 11 Good 0.00 0.00 49.7 80.3
9/22/22 - 1900 75.5 47 53.6 NNW | 344 5.7 11.6 81 1,016.2 10 Good 0.00 0.00 49.7 80.3
9/22/22 - 1800 79.0 41 53.5 NNW | 345 6.3 14.0 278 1,015.8 9 Good 0.00 0.00 49.7 80.3
9/22/22 - 1700 79.4 40 52.9 N | 351 5.0 11.4 477 1,016.0 8 Good 0.00 0.00 49.7 80.3
9/22/22 - 1600 78.6 44 54.6 N | 351 5.5 11.4 647 1,016.5 9 Good 0.00 0.00 49.7 79.3
9/22/22 - 1500 78.0 44 54.4 NNW | 345 4.9 12.5 768 1,016.8 11 Good 0.00 0.00 49.7 79.1
9/22/22 - 1400 76.1 51 56.5 N | 0 4.0 10.2 826 1,017.7 12 Good 0.00 0.00 49.7 77.8
9/22/22 - 1300 73.9 55 56.6 WNW | 300 3.3 9.8 820 1,018.9 14 Good 0.00 0.00 49.7 75.0
9/22/22 - 1200 71.6 58 55.8 NNE | 26 2.3 8.0 753 1,019.9 14 Good 0.00 0.00 49.7 74.0
Max 86.3 91 59.5 - 6.3 14.0 838 1,019.9 17 - 0.00 0.00 56.3 87.3
Avg 67.2 65 53.2 - 3.5 7.6 262 1,016.9 13 - 0.00 - - -
Min 51.1 32 48.1 - 0.3 2.4 0 1,013.0 8 - 0.00 0.00 49.7 56.6
Total - - - - - - - - - - 0.00 - - -

Last 365 Observations

Stanford Met Tower

Daily Data | America/Los_Angeles
as of 9/24/22 12:29 PM PDT
Date Daily Max Temp (°F) Time of Max Temp Daily Min Temp (°F) Time of Min Temp Daily Rain (In) Monthly Rain (In) Seasonal Rainfall (In) Daily ETo (in) 7 Day ETo (in) Daily Solar Rad (Cal/cm2) Daily Max Wind (mph) Time of Max Wind Max Wind Dir (°) Dew Pt (°F) Max RH (%) Min RH (%) PM2.5 Daily Max (ug/m3) Time of Max PM2.5 Max Pressure (mb) (mb) Time of Max Press Min pressure (mb) (mb) Time of Min Press Max Temp2 (°F) Temp 2m (°F) Max Temp 10m (°F) Min Temp 10m (°F) Max Temp Inversion (°F) Time of Max Temp Inversion Min Temp Inversion (°F) Time of Min Temp Inversion GDDs (DL) Seas GDDs (DL) Chilling <=45F (hrs) Chilling <=45F Seas (hrs) HDDs (°F) CDDs (°F) Storm Total (In) Daily Max Rain Intensity (In/Hr) Time of Max Rain Intensity Max 1 Min Rain (In) Max 1 Min Rain Time Max 15 Min Rain (In) Max 15 Min Precip Time Max 60 Min Rain (In) Max 60 Min Rain Time MinBV Day (V)
9/23/22 87.3 1654 50.1 0719 0.00 0.38 0.39 0.170 0.91 522 11.5 1331 N | 5 52.6 92 29 5.2 2258 1,018.8 0849 1,012.8 1702 91.3 68.6 85.9 51.4 5.8 1933 -8.7 1256 17.9 2,471 0.0 - 4.5 7.4 - - - - - - - - - 11.6
9/22/22 80.3 1658 49.7 0623 0.00 0.38 0.39 0.157 0.89 517 14.0 1726 N | 6 52.3 91 36 4.3 2113 1,022.2 0857 1,015.6 1728 85.0 64.8 79.0 50.1 5.6 2112 -9.6 1232 14.0 2,453 0.0 - 5.3 4.2 - - - - - - - - - 11.4
9/21/22 73.5 1609 53.2 0059 0.02 0.38 0.39 0.091 0.88 300 12.8 1714 NNW | 329 55.3 93 50 5.8 0713 1,020.6 0044 1,015.5 0210 78.0 63.9 72.2 53.2 4.6 2130 -6.9 1603 13.5 2,439 0.0 - 3.3 1.8 - 0.01 0918 0.01 0819 0.01 0833 0.02 0820 11.5
9/20/22 75.1 1227 52.0 0655 0.00 0.36 0.37 0.118 0.92 374 16.2 1353 NW | 326 52.6 91 44 4.3 1343 1,015.8 2156 1,013.3 1658 80.3 63.7 73.3 52.0 3.9 2106 -8.1 1329 13.3 2,425 0.0 - 4.3 2.6 - - - - - - - - - 11.6
9/19/22 78.0 1615 53.8 0720 0.00 0.36 0.37 0.122 0.96 393 23.3 1818 SW | 216 55.1 97 44 3.7 0728 1,014.7 0057 1,009.4 1612 81.0 64.7 76.4 54.1 3.7 0352 -7.1 1520 14.7 2,412 0.0 - 3.3 3.0 - - - - - - - - - 11.5
9/18/22 74.0 1543 59.8 0055 0.36 0.36 0.37 0.107 0.98 316 30.8 1035 SE | 137 56.9 95 55 5.5 1843 1,010.3 0055 1,003.6 0525 76.2 64.0 72.7 56.9 3.6 2054 -5.1 1539 14.7 2,397 0.0 - 1.5 1.2 0.36 1.24 1841 0.02 1840 0.17 1841 0.27 1848 11.5
9/17/22 70.1 1224 49.8 0535 0.00 0.00 0.01 0.143 1.00 513 21.4 1534 WNW | 294 51.9 96 50 9.3 0258 1,014.6 0101 1,007.5 0045 76.4 62.0 69.0 51.5 5.7 0603 -8.7 1448 10.8 2,383 0.0 - 4.9 0.8 - - - - - - - - - 11.5
9/16/22 78.8 1639 49.0 0556 0.00 0.00 0.01 0.157 0.96 532 16.9 1701 SSW | 207 52.8 97 43 11.5 0658 1,019.8 0101 1,013.7 1655 83.5 63.4 77.3 49.9 5.4 0551 -9.6 1245 12.3 2,372 0.0 - 5.8 3.1 - - - - - - - - - 11.3
9/15/22 72.5 1611 52.4 0439 0.00 0.00 0.01 0.139 0.98 484 18.6 1413 NNW | 343 52.8 94 51 21.8 0743 1,020.1 2330 1,017.2 1616 78.1 62.6 71.0 52.9 3.8 2154 -8.6 1540 11.6 2,360 0.0 - 5.0 1.6 - - - - - - - - - 11.4
9/14/22 75.8 1457 51.3 0639 0.00 0.00 0.01 0.131 1.04 409 20.5 1616 WSW | 256 53.1 96 42 17.7 0658 1,018.4 0054 1,014.6 1507 81.3 63.6 74.3 52.0 5.4 0218 -9.1 1358 12.8 2,348 0.0 - 4.9 2.6 - - - - - - - - - 11.3
9/13/22 72.7 1321 54.5 0024 0.00 0.00 0.01 0.162 1.10 555 24.4 1715 NW | 305 53.4 92 48 10.7 0728 1,016.5 0820 1,013.3 1457 78.2 64.4 71.6 55.4 4.6 2202 -9.5 1159 13.1 2,335 0.0 - 3.7 1.8 - - - - - - - - - 11.4
9/12/22 80.6 1422 61.2 0029 0.00 0.00 0.01 0.145 1.15 452 18.7 1629 NNW | 329 56.8 84 33 16.3 0100 1,018.0 0212 1,013.4 1433 86.3 69.7 79.2 61.5 1.7 2219 -9.6 1208 18.6 2,322 0.0 - 0.6 4.1 - - - - - - - - - 11.5
9/11/22 82.0 1748 66.4 0024 0.00 0.00 0.01 0.118 1.22 352 11.9 1451 N | 0 61.0 88 35 22.5 0113 1,018.7 1052 1,015.7 1752 85.1 72.6 80.3 65.8 2.6 2145 -8.9 1253 21.8 2,304 0.0 - 0.0 6.8 - - - - - - - - - 11.3
9/10/22 80.1 1436 60.2 0557 0.00 0.00 0.01 0.109 1.30 306 22.5 1625 SSW | 201 62.0 93 59 25.2 2243 1,017.2 2135 1,006.7 0101 82.0 70.2 78.6 60.5 3.0 0557 -6.8 1240 19.8 2,282 0.0 - 1.0 5.8 - - - - - - - - - 11.3
9/9/22 85.9 1522 58.4 0652 0.00 0.00 0.01 0.175 1.39 546 9.8 1351 NNE | 26 60.0 92 40 30.3 0143 1,006.9 0037 999.0 1432 91.6 72.4 84.5 59.3 4.3 0409 -9.7 1324 21.0 2,262 0.0 - 1.1 7.1 - - - - - - - - - 11.5
9/8/22 100.8 1619 61.3 0601 0.00 0.00 0.01 0.196 1.38 555 9.8 1725 NE | 47 59.1 80 20 29.8 0058 1,014.8 0101 1,003.3 1649 106.2 80.3 99.0 62.9 4.8 0246 -8.3 1326 29.2 2,241 0.0 - 0.5 14.7 - - - - - - - - - 11.4
9/7/22 94.3 1717 62.2 0611 0.00 0.00 0.01 0.192 1.37 555 11.8 1523 N | 352 60.7 84 26 22.3 0528 1,016.1 0845 1,011.5 1717 98.5 77.1 92.9 63.4 5.0 0412 -9.2 1220 25.6 2,212 0.0 - 0.3 10.9 - - - - - - - - - 11.5
9/6/22 109.3 1306 65.4 0604 0.00 0.00 0.01 0.217 1.35 572 17.7 1650 WSW | 252 57.4 78 14 15.2 2158 1,013.5 0059 1,005.3 1302 112.3 83.1 106.3 66.8 7.1 0134 -8.4 1429 32.1 2,186 0.0 - 0.0 17.1 - - - - - - - - - 11.3
9/5/22 106.9 1622 59.6 0637 0.00 0.00 0.01 0.215 1.30 575 13.2 1643 NNE | 17 53.4 75 10 11.2 2143 1,011.9 0802 1,004.1 1653 110.5 82.5 105.6 61.5 7.2 2303 -8.8 1454 31.6 2,154 0.0 - 0.9 17.4 - - - - - - - - - 11.7
9/4/22 94.7 1642 54.3 0639 0.00 0.00 0.01 0.201 1.25 585 12.4 1629 N | 5 54.0 88 17 9.2 0828 1,016.0 0718 1,008.9 1842 99.1 75.0 93.5 55.1 9.2 2230 -8.9 1233 23.7 2,123 0.0 - 2.6 11.3 - - - - - - - - - 11.1
9/3/22 87.8 1534 54.8 0644 0.00 0.00 0.01 0.196 1.23 592 11.8 1732 NNW | 346 56.5 91 31 17.2 0158 1,017.1 0733 1,012.2 1457 92.6 72.1 85.8 55.0 3.2 0004 -9.6 1255 20.6 2,099 0.0 - 2.4 8.0 - - - - - - - - - 11.3
9/2/22 78.7 1809 50.4 0652 0.00 0.00 0.01 0.163 1.21 571 11.4 1357 NE | 50 56.3 97 52 23.2 0913 1,016.5 0057 1,011.9 1635 80.7 66.1 76.8 51.2 3.9 0544 -10.7 1236 14.5 2,078 0.0 - 4.1 3.6 - - - - - - - - - 11.1
9/1/22 85.1 1438 50.1 0630 0.00 0.00 0.01 0.190 1.23 608 10.6 1411 NNE | 20 55.4 91 36 13.8 0713 1,015.8 0812 1,008.9 1637 91.1 68.5 83.1 51.5 3.0 0113 -10.6 1257 16.8 2,064 0.0 - 4.2 6.0 - - - - - - - - - 9.2
8/31/22 78.7 1607 54.4 0111 0.00 0.01 0.01 0.170 1.23 577 10.9 1327 NNW | 348 56.1 95 39 16.8 0828 1,019.0 0854 1,013.9 1807 84.0 67.6 77.4 55.8 3.5 2215 -10.5 1210 15.8 2,047 0.0 - 2.9 3.6 - - - - - - - - - 9.1
8/30/22 74.5 1607 55.1 0058 0.00 0.01 0.01 0.164 1.24 570 14.7 1622 N | 5 56.8 95 57 22.3 0543 1,018.5 0058 1,015.4 1502 80.4 66.0 73.0 55.6 3.2 2340 -10.0 1321 14.4 2,031 0.0 - 3.4 2.8 - - - - - - - - - 10.3
8/29/22 76.7 1712 56.3 0351 0.00 0.01 0.01 0.164 1.27 563 15.2 1514 NNE | 27 57.4 91 53 15.8 0043 1,016.9 0024 1,012.7 1516 80.5 67.0 74.8 56.4 3.1 2332 -10.1 1327 15.5 2,017 0.0 - 2.6 3.1 - - - - - - - - - 10.5
8/28/22 78.8 1516 54.5 0659 0.00 0.01 0.01 0.180 1.32 616 16.3 2021 WSW | 241 56.0 93 44 23.8 0143 1,013.9 0054 1,009.0 1714 83.5 66.5 76.9 54.8 3.2 0633 -11.0 1211 15.0 2,001 0.0 - 3.1 3.1 - - - - - - - - - 9.4
8/27/22 82.8 1738 58.5 0059 0.00 0.01 0.01 0.182 1.33 611 14.4 1345 N | 1 58.4 92 40 27.2 2313 1,014.1 0101 1,008.9 2058 84.5 69.4 81.1 59.2 1.9 0058 -10.0 1327 17.8 1,986 0.0 - 1.5 4.3 - - - - - - - - - 9.2
8/26/22 77.4 1605 59.6 0014 0.00 0.01 0.01 0.179 1.35 611 14.0 1408 N | 5 59.5 92 60 4.5 2043 1,017.7 0133 1,012.6 1859 83.2 69.2 75.8 59.8 2.4 2346 -9.8 1137 17.4 1,968 0.0 - 1.4 3.9 - - - - - - - - - 10.4
8/25/22 80.7 1445 58.9 2249 0.00 0.01 0.01 0.190 1.36 631 12.8 1325 NE | 47 58.5 90 52 7.8 0628 1,018.2 2322 1,013.4 1521 86.6 69.7 79.0 59.3 2.0 2244 -10.2 1257 18.1 1,951 0.0 - 1.5 4.6 - - - - - - - - - 9.2
8/24/22 79.2 1532 59.7 0132 0.00 0.01 0.01 0.181 1.36 612 13.1 1152 NE | 53 59.1 90 52 8.7 0828 1,014.7 0047 1,009.3 1529 84.7 69.2 77.7 60.6 1.9 0132 -10.9 1352 17.4 1,933 0.0 - 1.4 3.7 - - - - - - - - - 9.2
8/23/22 86.6 1632 60.3 0034 0.00 0.01 0.01 0.192 1.31 608 13.0 1435 ENE | 58 60.9 93 45 4.0 2143 1,016.1 0111 1,008.1 1706 90.3 71.9 84.4 61.1 1.6 2201 -10.3 1257 20.4 1,916 0.0 - 0.9 6.3 - - - - - - - - - 10.5
8/22/22 86.5 1636 60.0 0649 0.00 0.01 0.01 0.211 1.34 642 19.9 1527 N | 349 59.6 93 39 5.8 0158 1,020.2 0733 1,015.4 1741 92.5 72.4 85.3 59.7 4.1 2227 -10.1 1349 20.8 1,895 0.0 - 1.2 7.0 - - - - - - - - - 11.3
8/21/22 84.1 1439 54.8 0349 0.00 0.01 0.01 0.197 1.33 634 22.1 1716 SW | 223 58.0 96 44 10.8 0713 1,019.9 0044 1,014.4 0153 88.1 68.5 82.6 55.2 3.1 0132 -10.7 1414 17.0 1,874 0.0 - 2.7 4.8 - - - - - - - - - 10.9
8/20/22 85.3 1524 54.8 0638 0.00 0.01 0.01 0.200 1.35 648 11.8 1549 N | 9 58.9 94 46 12.8 0758 1,014.7 0059 1,008.1 1523 90.6 69.6 83.1 54.7 3.7 0038 -10.4 1324 17.8 1,857 0.0 - 2.9 5.6 - - - - - - - - - 10.6
8/19/22 81.0 1533 59.7 0100 0.00 0.01 0.01 0.193 1.37 638 14.2 1550 NNW | 335 58.9 94 43 12.7 1628 1,016.0 0434 1,009.6 1531 86.8 69.7 79.5 59.7 2.0 0013 -10.8 1355 17.9 1,840 0.0 - 1.5 4.4 - - - - - - - - - 10.6
8/18/22 81.6 1648 55.1 0555 0.00 0.01 0.01 0.182 1.39 606 12.1 1411 NNE | 14 58.2 95 43 14.7 0758 1,017.2 0853 1,013.1 1527 85.5 68.1 79.6 55.2 3.0 0136 -9.9 1216 16.3 1,822 0.0 - 2.9 4.2 - - - - - - - - - 10.4
8/17/22 80.4 1355 58.8 0055 0.00 0.01 0.01 0.137 1.41 437 21.8 0549 SW | 235 59.5 92 52 11.5 0328 1,015.6 0053 1,011.0 0545 86.2 69.7 79.3 59.9 3.6 0207 -9.4 1535 18.3 1,805 0.0 - 1.3 4.7 - - - - - - - - - 11.4
8/16/22 93.3 1643 52.2 0546 0.00 0.01 0.01 0.217 1.48 648 10.8 1654 NNE | 12 57.5 92 26 18.5 1443 1,013.0 0744 1,006.2 1537 98.5 73.3 91.2 52.9 3.5 0100 -10.0 1215 21.5 1,787 0.0 - 3.1 9.6 - - - - - - - - - 11.5
8/15/22 85.9 1515 53.3 0618 0.00 0.01 0.01 0.209 1.47 667 12.1 1524 N | 9 58.1 93 41 17.5 2128 1,015.5 0101 1,009.5 1523 91.2 69.9 84.9 53.2 3.7 0050 -10.8 1332 18.0 1,766 0.0 - 3.3 6.3 - - - - - - - - - 11.5
8/14/22 86.3 1635 50.8 0534 0.00 0.01 0.01 0.214 1.47 677 13.9 1343 NNE | 19 55.7 92 35 15.0 2358 1,019.1 0710 1,012.7 1703 90.2 69.1 84.2 51.0 2.1 2336 -10.1 1314 17.4 1,748 0.0 - 4.0 6.4 - - - - - - - - - 11.5
8/13/22 83.8 1557 50.6 0627 0.00 0.01 0.01 0.216 1.46 686 15.3 1625 N | 6 52.9 88 31 10.0 0028 1,020.3 0735 1,015.6 1506 89.4 68.1 82.5 50.8 3.0 0020 -10.6 1243 16.4 1,730 0.0 - 4.3 5.6 - - - - - - - - - 11.5
8/12/22 80.5 1542 50.4 0621 0.00 0.01 0.01 0.211 1.43 682 16.2 1534 NW | 318 53.1 94 39 12.5 0528 1,020.7 0700 1,016.4 1527 86.6 66.8 79.4 51.2 3.4 0317 -10.2 1154 15.0 1,714 0.0 - 4.5 4.5 - - - - - - - - - 10.6
8/11/22 79.9 1517 52.0 0640 0.00 0.01 0.01 0.206 1.42 674 17.9 1456 NNE | 22 54.8 91 41 5.0 0728 1,021.7 0719 1,017.1 1516 86.2 67.0 78.9 52.5 3.1 2235 -9.8 1253 15.4 1,699 0.0 - 3.8 4.2 - - - - - - - - - 11.2
8/10/22 80.6 1634 53.3 0550 0.00 0.01 0.01 0.207 1.43 674 17.2 1744 N | 355 56.2 92 46 4.0 0528 1,021.4 0042 1,017.4 1721 85.4 68.2 79.6 53.7 3.9 2315 -10.5 1229 16.6 1,683 0.0 - 3.3 4.9 - - - - - - - - - 11.5
8/9/22 81.2 1636 52.0 0545 0.00 0.01 0.01 0.204 1.42 670 18.8 1626 NNW | 341 55.2 92 43 4.2 2328 1,019.9 2349 1,014.6 1532 85.0 67.2 79.4 51.8 2.5 2304 -10.2 1229 15.5 1,667 0.0 - 3.8 4.3 - - - - - - - - - 11.6
8/8/22 80.1 1525 51.9 0640 0.00 0.01 0.01 0.210 1.41 688 21.1 1629 NW | 317 55.0 93 43 4.8 0758 1,020.3 0642 1,014.8 1652 85.2 66.7 78.7 52.1 3.0 2249 -10.4 1243 15.0 1,651 0.0 - 4.0 4.0 - - - - - - - - - 11.4
8/7/22 78.2 1701 52.2 0550 0.00 0.01 0.01 0.201 1.34 678 15.6 1843 N | 349 55.2 95 48 6.7 0328 1,020.0 0736 1,016.0 1556 82.6 66.2 76.6 52.7 3.0 0454 -10.2 1327 14.5 1,636 0.0 - 3.9 3.4 - - - - - - - - - 11.0
8/6/22 76.5 1517 56.4 0053 0.00 0.01 0.01 0.192 1.25 658 17.9 1500 N | 7 57.3 90 52 6.5 2228 1,019.0 0812 1,015.3 1837 81.7 68.7 74.9 56.9 3.0 0002 -11.0 1206 17.0 1,622 0.0 - 1.5 3.5 - - - - - - - - - 11.4
8/5/22 81.5 1519 61.8 0606 0.00 0.01 0.01 0.205 1.20 662 22.8 1648 SSW | 212 58.5 88 50 10.3 0100 1,018.3 0035 1,013.4 1513 85.4 69.4 79.6 61.2 0.8 0103 -10.3 1330 18.0 1,605 0.0 - 1.0 4.0 - - - - - - - - - 11.4
8/4/22 84.9 1553 59.4 0523 0.01 0.01 0.01 0.210 1.16 660 21.9 1649 SSW | 201 59.0 93 29 14.0 0228 1,015.3 0051 1,011.1 1550 88.4 70.8 83.3 59.4 2.2 0416 -10.7 1350 19.2 1,587 0.0 - 1.2 5.3 - 0.01 2224 0.01 2125 0.01 2139 0.01 2224 10.5
8/3/22 80.2 1704 59.1 0614 0.00 0.00 0.00 0.204 1.14 679 13.4 1224 N | 11 59.5 90 51 11.8 0028 1,018.5 0104 1,011.8 1813 85.6 70.9 78.6 59.0 1.6 0045 -10.4 1422 18.9 1,568 0.0 - 1.2 5.1 - - - - - - - - - 10.2
8/2/22 88.3 1529 58.2 0623 0.00 0.00 0.00 0.188 1.12 553 13.7 1300 NNE | 19 57.1 90 32 6.0 0758 1,019.5 0615 1,014.4 1549 92.7 72.2 85.7 58.7 2.4 0453 -10.1 1303 20.8 1,549 0.0 - 1.5 7.3 - - - - - - - - - 11.1
8/1/22 78.5 1703 61.3 0410 0.00 0.00 0.00 0.142 1.13 468 11.9 1451 ENE | 59 59.2 90 52 7.5 0558 1,019.3 0949 1,015.7 1723 83.5 69.1 76.9 61.0 3.2 2209 -10.8 1315 17.8 1,528 0.0 - 1.0 3.8 - - - - - - - - - 10.7
7/31/22 75.3 1630 61.8 0611 0.00 0.00 0.00 0.108 1.17 367 11.9 1753 NE | 42 58.8 87 60 5.2 0058 1,019.1 2344 1,015.7 1635 79.6 67.4 73.8 61.1 0.4 0218 -8.2 1108 16.3 1,510 0.0 - 1.0 2.3 - - - - - - - - - 11.4
7/30/22 78.1 1546 59.3 0625 0.00 0.00 0.00 0.149 1.27 506 15.4 1650 WSW | 257 57.7 87 53 1.7 1813 1,017.4 2151 1,013.7 1550 85.3 67.8 76.4 59.1 0.9 0617 -11.5 1212 16.4 1,494 0.0 - 1.8 3.2 - - - - - - - - - 11.4
7/29/22 77.9 1541 56.1 0432 0.00 0.00 0.00 0.164 1.32 556 14.0 1212 NNE | 27 57.0 91 54 3.0 1628 1,016.3 0854 1,011.8 1712 81.7 67.1 76.2 56.3 1.8 0334 -11.1 1224 15.5 1,477 0.0 - 2.6 3.1 - - - - - - - - - 11.2
7/28/22 75.0 1659 55.5 0219 0.00 0.00 0.00 0.184 1.37 663 15.1 1314 NE | 53 56.7 94 55 2.3 0343 1,017.6 0207 1,012.8 1612 80.1 66.2 73.4 56.5 2.8 0210 -10.8 1313 14.2 1,462 0.0 - 3.0 2.2 - - - - - - - - - 11.3
7/27/22 74.6 1713 57.2 0059 0.00 0.00 0.00 0.189 1.38 670 14.4 1531 NE | 50 57.1 92 54 2.3 1143 1,019.2 0913 1,015.1 1525 80.9 67.3 73.4 58.2 1.4 0059 -10.5 1309 15.3 1,448 0.0 - 2.0 2.3 - - - - - - - - - 11.2
7/26/22 76.2 1731 60.7 0426 0.00 0.00 0.00 0.195 1.40 680 14.4 1509 N | 0 57.3 86 52 5.5 0813 1,018.2 0058 1,013.9 1445 81.6 68.3 74.2 60.0 1.5 2129 -10.7 1417 16.3 1,433 0.0 - 1.6 2.9 - - - - - - - - - 11.2
7/25/22 72.2 1649 58.1 0106 0.00 0.00 0.00 0.183 1.40 664 14.1 1232 NNE | 24 55.9 88 60 10.7 0758 1,016.5 0917 1,012.5 1820 78.3 65.8 70.6 57.3 1.4 2345 -11.0 1327 13.8 1,416 0.0 - 2.9 1.7 - - - - - - - - - 11.2
7/24/22 74.7 1555 53.3 0134 0.00 0.00 0.00 0.201 1.44 710 16.2 1442 NNE | 26 55.4 95 55 10.5 0743 1,016.2 0816 1,011.6 1552 81.9 65.9 73.4 54.0 2.5 0101 -11.3 1216 13.6 1,403 0.0 - 3.7 2.3 - - - - - - - - - 11.2
7/23/22 73.2 1621 49.9 0459 0.00 0.00 0.00 0.201 1.46 732 15.2 1516 NNE | 28 53.7 94 55 10.7 0643 1,017.1 0909 1,012.1 1546 78.8 63.9 71.0 50.6 3.4 0547 -11.4 1215 11.7 1,389 0.0 - 5.0 1.7 - - - - - - - - - 10.6
7/22/22 82.9 1617 51.2 0603 0.00 0.00 0.00 0.219 1.48 731 14.7 1814 NNE | 16 53.5 94 32 12.2 0728 1,018.2 0700 1,013.5 1653 87.4 67.4 81.2 51.5 4.6 2241 -11.7 1218 15.4 1,377 0.0 - 4.1 4.5 - - - - - - - - - 10.3
7/21/22 75.5 1656 55.2 0012 0.00 0.00 0.00 0.197 1.48 698 12.1 1613 NE | 39 55.9 92 53 8.8 0713 1,020.1 0839 1,015.7 1831 81.2 66.3 73.5 56.0 2.9 0013 -12.0 1304 14.2 1,362 0.0 - 3.3 2.6 - - - - - - - - - 11.2
7/20/22 75.4 1536 54.0 0204 0.00 0.00 0.00 0.199 1.50 706 12.9 1353 N | 10 55.4 95 52 7.5 0713 1,021.0 0839 1,017.8 1558 81.0 65.6 73.4 54.8 2.5 0119 -11.3 1314 13.4 1,348 0.0 - 3.9 2.3 - - - - - - - - - 11.1
7/19/22 76.4 1508 51.9 0632 0.00 0.00 0.00 0.204 1.51 722 12.9 1543 ENE | 65 55.3 94 51 13.5 0113 1,020.0 0834 1,016.0 1530 82.3 65.4 74.4 52.9 2.8 0119 -11.1 1239 13.3 1,334 0.0 - 4.3 2.6 - - - - - - - - - 11.3
7/18/22 81.2 1252 55.0 0601 0.00 0.00 0.00 0.222 1.51 718 12.7 1410 N | 0 57.5 93 47 19.3 0728 1,018.2 0028 1,013.6 0101 88.8 70.1 79.9 55.2 3.4 0423 -10.9 1234 18.0 1,321 0.0 - 2.6 5.6 - - - - - - - - - 11.3
7/17/22 81.6 1655 53.9 0453 0.00 0.00 0.00 0.215 1.52 719 11.4 1707 NE | 47 57.4 95 43 16.0 2343 1,014.1 0204 1,010.0 1610 86.2 69.2 80.0 54.3 3.3 0210 -11.2 1209 17.1 1,303 0.0 - 2.7 4.8 - - - - - - - - - 11.4
7/16/22 83.4 1643 51.9 0300 0.00 0.00 0.00 0.221 1.54 714 11.4 1432 N | 8 56.8 95 42 12.0 0043 1,017.7 0735 1,011.0 1713 88.9 69.3 81.5 52.6 3.7 0330 -10.8 1321 17.2 1,286 0.0 - 3.6 5.7 - - - - - - - - - 11.3
7/15/22 78.0 1650 50.6 0620 0.00 0.00 0.00 0.221 1.54 750 14.4 1357 NE | 49 53.3 92 42 9.3 0743 1,019.0 0732 1,015.1 1536 84.2 66.1 76.2 50.7 2.6 0048 -10.3 1207 14.1 1,269 0.0 - 4.3 3.4 - - - - - - - - - 11.4
7/14/22 81.3 1549 55.5 0051 0.00 0.00 0.00 0.221 1.55 736 16.5 1556 NNE | 22 54.7 88 36 12.2 0328 1,018.0 2312 1,013.8 1533 87.2 68.6 79.9 56.1 4.2 2345 -10.9 1256 16.5 1,254 0.0 - 2.3 3.7 - - - - - - - - - 11.6
7/13/22 76.3 1716 59.7 2333 0.00 0.00 0.00 0.206 1.54 723 15.6 1329 NNE | 20 57.1 90 56 7.5 2143 1,017.7 0845 1,014.3 1723 80.9 68.1 74.6 59.2 2.5 2203 -11.8 1325 16.1 1,238 0.0 - 1.8 2.9 - - - - - - - - - 11.7
7/12/22 78.3 1627 57.3 0150 0.00 0.00 0.00 0.200 1.50 684 19.8 2100 SSW | 198 58.4 96 52 7.3 0243 1,015.6 0604 1,011.4 1608 82.8 68.6 76.5 58.0 2.5 0150 -11.4 1218 16.6 1,222 0.0 - 1.9 3.5 - - - - - - - - - 11.4
7/11/22 81.1 1418 55.3 0619 0.00 0.00 0.00 0.230 1.49 749 11.6 1306 NNE | 17 58.6 94 49 10.5 1443 1,016.5 0132 1,011.1 1751 88.5 70.3 79.4 55.4 3.9 0124 -11.1 1345 18.1 1,205 0.0 - 2.5 5.6 - - - - - - - - - 12.0
7/10/22 88.4 1522 55.0 0325 0.00 0.00 0.00 0.241 1.42 744 13.9 1838 N | 11 58.5 95 34 7.7 0428 1,022.8 0101 1,014.2 1833 94.2 72.8 86.0 55.3 4.0 0101 -11.1 1345 20.9 1,187 0.0 - 2.2 8.1 - - - - - - - - - 11.2
7/9/22 79.3 1640 53.4 0603 0.00 0.00 0.00 0.219 1.32 748 22.1 1823 NNW | 328 55.7 96 45 5.0 0058 1,024.0 0721 1,020.8 1737 85.4 67.1 78.3 53.8 4.4 0047 -10.6 1206 15.1 1,166 0.0 - 3.4 3.5 - - - - - - - - - 11.6
7/8/22 80.6 1505 51.2 0542 0.00 0.00 0.00 0.233 1.27 755 22.6 1542 NNW | 345 54.3 89 42 3.7 0813 1,022.3 2338 1,016.6 1423 86.9 67.5 79.6 51.5 3.5 0249 -10.2 1129 15.7 1,151 0.0 - 3.7 4.4 - - - - - - - - - 12.1
7/7/22 77.4 1458 53.4 0200 0.00 0.00 0.00 0.210 1.25 718 19.9 1832 NW | 326 54.2 93 46 3.0 2128 1,020.3 0914 1,016.4 1551 83.9 66.3 76.3 53.6 3.9 2214 -10.8 1133 14.3 1,135 0.0 - 3.5 2.8 - - - - - - - - - 12.1
7/6/22 73.5 1332 54.2 0050 0.00 0.00 0.00 0.172 1.24 580 19.8 1519 NNW | 347 56.0 92 55 1.2 0828 1,018.9 0021 1,015.3 1550 80.1 66.8 72.4 54.7 2.1 2354 -9.9 1357 15.5 1,121 0.0 - 1.6 2.1 - - - - - - - - - 12.1
7/5/22 78.1 1434 61.8 2332 0.00 0.00 0.00 0.185 1.27 605 21.3 1410 SSW | 204 60.5 89 55 15.0 0158 1,017.5 2237 1,014.1 1819 82.4 70.5 76.3 61.9 1.4 2214 -8.8 1401 19.3 1,106 0.0 - 0.3 4.6 - - - - - - - - - 12.2
7/4/22 80.4 1624 53.8 0103 0.00 0.00 0.00 0.159 1.31 503 17.6 1708 SSW | 199 56.8 83 49 11.8 0058 1,018.9 0108 1,014.7 1640 85.1 67.9 78.6 53.5 1.3 0320 -9.4 1346 16.8 1,086 0.0 - 2.1 3.8 - - - - - - - - - 12.1
7/3/22 68.0 1610 52.7 0001 0.00 0.00 0.00 0.144 1.35 534 17.3 1712 N | 353 50.9 89 54 3.0 1343 1,019.8 1123 1,016.5 1559 74.3 61.3 66.8 52.9 2.7 2321 -10.4 1429 9.7 1,070 0.0 - 5.5 0.2 - - - - - - - - - 12.1
7/2/22 68.0 1326 47.5 0357 0.00 0.00 0.00 0.172 1.41 671 21.1 1811 NW | 309 51.4 95 58 4.3 2143 1,019.4 2341 1,016.5 1555 74.8 60.2 66.8 47.9 3.5 0150 -9.9 1418 8.4 1,060 0.0 - 6.9 0.1 - - - - - - - - - 12.1
7/1/22 73.8 1551 46.3 0457 0.00 0.00 0.00 0.214 1.45 774 16.4 1345 NE | 50 50.6 95 48 5.3 1828 1,020.3 0200 1,015.1 1835 79.5 62.0 71.6 46.8 3.2 0012 -10.7 1230 10.3 1,052 0.0 - 6.9 1.8 - - - - - - - - - 12.1
6/30/22 72.7 1719 49.5 0602 0.00 0.00 13.46 0.196 1.46 750 16.0 1348 NE | 53 51.1 93 50 7.8 2058 1,020.3 0741 1,017.1 1544 77.8 62.5 70.6 50.0 2.8 0006 -11.4 1149 10.7 1,041 0.0 - 5.8 1.6 - - - - - - - - - 12.1
6/29/22 73.9 1420 51.1 0554 0.00 0.00 13.46 0.198 1.48 708 16.7 1249 NE | 50 53.4 92 50 11.5 0743 1,020.1 2249 1,016.6 1607 80.5 64.7 72.3 51.3 2.5 0417 -11.5 1246 12.7 1,030 0.0 - 4.5 2.1 - - - - - - - - - 10.9
6/28/22 84.5 1518 51.3 0614 0.00 0.00 13.46 0.224 1.47 706 16.8 1550 N | 1 52.0 95 25 8.7 0828 1,021.3 0739 1,016.2 1541 90.6 68.6 83.4 52.0 5.2 2143 -11.5 1246 16.6 1,018 0.0 - 3.7 5.3 - - - - - - - - - 11.0
6/27/22 79.2 1745 54.0 0111 0.00 0.00 13.46 0.204 1.51 695 13.3 1541 NNE | 31 56.9 96 48 10.3 0358 1,021.3 0839 1,017.1 1541 86.6 68.2 77.0 55.1 3.0 0100 -11.5 1456 15.7 1,001 0.0 - 3.1 3.8 - - - - - - - - - 11.4
6/26/22 76.4 1658 52.1 0314 0.00 0.00 13.46 0.201 1.56 694 13.2 1427 N | 352 56.4 95 53 14.5 0613 1,020.3 2320 1,016.0 1517 85.6 66.4 74.8 52.4 3.0 0059 -12.0 1415 14.0 985 0.0 - 4.0 3.1 - - - - - - - - - 11.0
6/25/22 80.9 1631 51.6 0544 0.00 0.00 13.46 0.213 1.58 712 13.0 1458 NNE | 19 55.9 95 45 19.2 0758 1,017.6 2329 1,012.4 1605 86.6 67.2 79.5 51.9 2.9 0007 -11.3 1357 15.0 971 0.0 - 4.3 4.3 - - - - - - - - - 11.2
6/24/22 81.9 1357 52.6 0541 0.00 0.00 13.46 0.222 1.57 717 13.3 1413 N | 6 56.6 94 45 16.3 2258 1,014.9 0040 1,010.2 1558 89.8 69.5 80.2 53.3 3.5 0103 -10.8 1322 17.2 956 0.0 - 3.4 5.6 - - - - - - - - - 11.3
6/23/22 83.1 1422 57.7 0556 0.00 0.00 13.46 0.219 1.52 682 13.6 1456 NNE | 32 57.2 92 44 12.8 0143 1,015.7 0730 1,010.4 1433 90.8 71.0 81.2 58.7 3.5 2311 -11.0 1236 18.9 939 0.0 - 2.0 5.9 - - - - - - - - - 12.1
6/22/22 89.4 1419 57.5 0545 0.00 0.00 13.46 0.188 1.50 512 23.2 1459 NE | 44 54.4 87 25 16.0 0758 1,015.1 0035 1,010.4 1429 97.6 72.4 88.0 61.4 9.7 0515 -11.4 1335 21.2 920 0.0 - 1.2 7.4 - - - - - - - - - 12.1
6/21/22 99.0 1458 53.8 0534 0.00 0.00 13.46 0.268 1.55 716 16.0 1723 NW | 324 45.2 74 11 8.8 0658 1,015.5 0651 1,008.5 1551 104.0 79.0 97.9 54.9 9.8 2119 -10.2 1326 27.6 899 0.0 - 2.3 14.9 - - - - - - - - - 12.1
6/20/22 88.3 1623 48.7 0607 0.00 0.00 13.46 0.246 1.53 713 18.0 1811 WNW | 301 47.4 88 16 12.3 0743 1,020.6 0101 1,013.1 1827 93.4 71.1 87.4 49.4 6.4 2144 -10.1 1208 19.5 872 0.0 - 4.1 8.5 - - - - - - - - - 12.2
6/19/22 80.6 1557 45.9 0534 0.00 0.00 13.46 0.230 1.50 718 20.4 1623 NNW | 347 45.3 87 22 8.8 0013 1,021.7 0804 1,017.6 1531 87.1 66.1 79.8 46.5 5.1 2345 -10.5 1246 14.7 852 0.0 - 5.7 4.9 - - - - - - - - - 12.1
6/18/22 68.2 1426 46.1 0554 0.00 0.00 13.46 0.199 1.43 717 22.4 1615 NW | 307 45.6 92 39 5.0 0100 1,020.2 2227 1,016.8 1446 74.5 59.7 66.6 46.8 4.1 2358 -9.0 1350 8.1 837 0.0 - 7.3 0.2 - - - - - - - - - 12.1
6/17/22 68.0 1513 49.8 0059 0.00 0.00 13.46 0.172 1.47 595 19.8 1711 W | 259 47.4 90 42 5.0 0058 1,017.7 0028 1,014.1 0156 76.0 60.7 66.6 50.6 3.7 2353 -10.3 1204 9.3 829 0.0 - 5.9 0.2 - - - - - - - - - 12.1
6/16/22 71.2 1344 50.2 0559 0.00 0.00 13.46 0.203 1.56 710 24.7 1806 WNW | 285 47.8 82 45 8.0 0243 1,016.5 0101 1,011.6 1500 77.1 61.6 70.1 50.5 4.0 0105 -8.8 1347 10.0 820 0.0 - 5.9 0.9 - - - - - - - - - 12.1
6/15/22 84.8 1452 50.0 0612 0.00 0.00 13.46 0.237 1.59 714 23.6 1600 NNW | 338 46.6 89 14 21.3 0743 1,016.7 0042 1,011.8 1459 90.5 67.4 83.5 50.3 5.5 2316 -11.0 1210 15.5 810 0.0 - 4.6 5.0 - - - - - - - - - 12.1
6/14/22 84.9 1727 49.3 0514 0.00 0.00 13.46 0.239 1.56 720 15.5 1621 NNW | 332 43.8 85 12 14.7 2213 1,019.2 0726 1,013.4 1826 91.3 69.5 83.9 50.1 4.7 2307 -10.4 1423 17.6 795 0.0 - 4.5 7.1 - - - - - - - - - 12.1
6/13/22 75.0 1636 48.3 0606 0.00 0.00 13.46 0.220 1.54 728 18.2 1557 WNW | 287 46.0 90 31 7.8 2058 1,019.3 0010 1,016.3 0110 81.3 64.1 74.1 48.9 3.4 0101 -10.2 1207 12.1 777 0.0 - 5.6 2.6 - - - - - - - - - 12.1
6/12/22 77.4 1517 53.4 0014 0.00 0.00 13.46 0.162 1.54 512 21.3 1427 WSW | 253 58.4 94 53 5.3 2258 1,016.8 0043 1,011.6 1455 84.1 67.8 75.7 53.9 3.6 0051 -10.7 1051 16.6 765 0.0 - 1.7 3.3 - - - - - - - - - 12.1
6/11/22 88.5 1322 56.8 0554 0.00 0.00 13.46 0.240 1.50 696 23.4 1357 NNW | 347 59.4 88 34 2.7 0743 1,017.7 0705 1,013.5 1515 94.7 74.7 87.3 57.5 5.4 0533 -10.1 1202 23.0 748 0.0 - 1.4 9.4 - - - - - - - - - 12.1
6/10/22 94.8 1442 56.4 0557 0.00 0.00 13.46 0.260 1.38 712 18.6 1635 NW | 326 56.7 87 23 8.0 0213 1,017.8 0007 1,011.7 1451 100.1 76.7 93.8 57.3 5.8 2229 -10.3 1253 25.1 725 0.0 - 1.6 11.7 - - - - - - - - - 12.1
6/9/22 90.1 1542 49.8 0544 0.00 0.00 13.46 0.235 1.29 662 23.7 1819 WNW | 299 51.0 94 16 9.7 0728 1,016.3 0917 1,011.3 1540 94.9 71.1 88.9 50.0 3.7 0056 -10.6 1341 19.4 700 0.0 - 3.8 8.2 - - - - - - - - - 12.2
6/8/22 78.2 1416 52.4 0531 0.00 0.00 13.46 0.203 1.25 664 24.4 1715 NW | 325 50.7 88 41 4.3 2328 1,018.1 0101 1,013.4 1511 84.8 66.7 77.2 52.8 3.7 2133 -9.3 1147 15.0 681 0.0 - 3.8 3.8 - - - - - - - - - 12.1
6/7/22 78.1 1448 47.2 0610 0.00 0.00 13.46 0.215 1.27 704 20.1 1539 NNW | 341 46.8 89 29 8.0 0758 1,018.3 0040 1,014.1 1510 84.3 64.1 76.9 47.4 4.2 2120 -10.2 1331 12.3 666 0.0 - 5.8 3.0 - - - - - - - - - 12.1
6/6/22 77.1 1525 52.2 0046 0.00 0.00 13.46 0.221 1.29 718 18.4 1441 N | 6 50.0 85 30 5.7 0613 1,019.1 0656 1,014.1 1904 83.2 67.1 76.0 52.5 3.8 2155 -10.1 1149 15.2 653 0.0 - 3.0 3.3 - - - - - - - - - 12.1
6/5/22 78.3 1417 61.9 0049 0.00 0.00 13.46 0.128 1.28 378 20.8 1334 WSW | 238 61.1 89 62 2.7 0258 1,018.1 0014 1,014.3 1428 82.4 69.6 76.6 61.2 1.3 0618 -6.6 1359 19.1 638 0.0 - 0.2 4.3 - - - - - - - - - 12.1
6/4/22 73.6 1530 56.1 0556 0.00 0.00 13.46 0.122 1.36 323 21.6 1814 WSW | 244 50.3 79 33 3.0 1358 1,017.0 0709 1,015.0 1803 75.8 65.6 72.7 56.3 1.3 2143 -8.3 1341 14.6 619 0.0 - 2.2 1.8 - - - - - - - - - 12.1
6/3/22 76.0 1524 52.8 0419 0.00 0.00 13.46 0.165 1.42 563 21.4 1315 NNW | 328 54.6 90 52 4.2 0643 1,016.2 0015 1,012.3 1549 81.6 65.0 75.0 53.0 3.2 0148 -9.9 1206 13.4 604 0.0 - 3.7 2.1 - - - - - - - - - 12.1
6/2/22 76.9 1617 52.2 0531 0.00 0.00 13.46 0.193 1.44 634 19.7 1704 NNW | 345 50.1 87 32 15.3 0643 1,015.6 2233 1,012.1 1600 82.2 65.1 75.4 52.9 3.2 0209 -11.1 1241 13.3 591 0.0 - 4.3 2.6 - - - - - - - - - 12.2
6/1/22 85.6 1631 46.0 0611 0.00 0.00 13.46 0.231 1.41 704 18.6 1919 NW | 324 45.6 87 16 15.2 0758 1,017.4 0715 1,011.5 1555 89.7 66.7 84.6 46.5 4.6 2159 -11.5 1343 15.4 578 0.0 - 5.8 5.6 - - - - - - - - - 12.2
5/31/22 82.1 1532 44.2 0529 0.00 0.00 13.46 0.233 1.41 712 18.6 1656 NNW | 342 40.8 89 17 17.7 0758 1,017.0 0713 1,012.1 1532 87.8 64.4 80.3 45.1 6.1 2152 -10.0 1205 13.5 562 0.9 - 7.1 4.7 - - - - - - - - - 12.2
5/30/22 76.0 1628 44.7 0611 0.00 0.00 13.46 0.209 1.42 710 18.2